Flight Track Log - Related Links

Times and Time Zones

All times are in EDT time to prevent confusion due to time zone crossing. See the CHQ5018 flight status page for this flight to view local times or setup timezone preferences in your user account.

Time Position Orientation Groundspeed Altitude Reporting Facility
EDT Latitude Longitude Course Direction KTS MPH feet Rate Location/Type
Fri 04:41:43 PM 41.9500 -87.9000 270° West 148 170 1,700  Level Chicago TRACON
Fri 04:42:43 PM 41.9333 -87.9667 251° West 171 197 4,200 1,700 Climbing Chicago TRACON
Fri 04:43:43 PM 41.9333 -88.0333 270° West 207 238 5,100 1,438 Climbing Chicago TRACON
Fri 04:44:00 PM 41.9667 -88.3500 270° West  Level FlightAware Approximate
Fri 04:45:00 PM 41.9667 -88.5000 270° West  Level FlightAware Approximate
Fri 04:45:09 PM 41.9289 -88.1483 267° West 241 277 7,700  Level Chicago Center
Fri 04:46:00 PM 41.9667 -88.6500 270° West  Level FlightAware Approximate
Fri 04:46:11 PM 41.9244 -88.2433 266° West 257 296 9,700  Level Chicago Center
Fri 04:47:00 PM 41.9667 -88.8000 270° West  Level FlightAware Approximate
Fri 04:47:13 PM 41.9156 -88.3686 265° West 283 326 11,200  Level Chicago Center
Fri 04:48:15 PM 41.9083 -88.4897 265° West 320 368 12,000 387 Climbing Chicago Center
Fri 04:49:17 PM 41.9008 -88.6172 266° West 343 395 12,000  Level Chicago Center
Fri 04:50:19 PM 41.8675 -88.7450 251° West 362 417 12,000  Level Chicago Center
Fri 04:51:21 PM 41.8319 -88.8950 252° West 357 411 12,000  Level Chicago Center
Fri 04:52:23 PM 41.8022 -89.0225 253° West 362 417 12,000  Level Chicago Center
Fri 04:53:25 PM 41.7736 -89.1494 253° West 359 413 12,000  Level Chicago Center
Fri 04:54:27 PM 41.7436 -89.2769 253° West 363 418 12,000  Level Chicago Center
Fri 04:55:29 PM 41.7144 -89.4050 253° West 363 418 12,000  Level Chicago Center
Fri 04:56:32 PM 41.6800 -89.5514 253° West 363 418 12,000  Level Chicago Center
Fri 04:57:34 PM 41.6497 -89.6814 253° West 367 422 12,000 -435 Level Chicago Center
Fri 04:58:36 PM 41.6203 -89.8092 253° West 364 419 11,100 -484 Descending Chicago Center
Fri 04:59:38 PM 41.5897 -89.9311 252° West 351 404 11,000 -435 Descending Chicago Center
Fri 05:00:40 PM 41.5533 -90.0678 250° West 328 377 10,200 -1,452 Descending Chicago Center
Fri 05:01:42 PM 41.5236 -90.1533 245° Southwest 264 304 8,000 -2,160 Descending Chicago Center
Fri 05:02:45 PM 41.4933 -90.2414 245° Southwest 261 300 5,700 -2,190 Descending Chicago Center

Login

Don't have an account? Register now (free) for customized features, flight alerts, and more!